sensor_id;sensor_type;location;lat;lon;timestamp;temperature;humidity
45066;DHT22;30830;53.704;10.004;2022-07-26T00:01:30;17.00;99.90
45066;DHT22;30830;53.704;10.004;2022-07-26T00:03:56;17.00;99.90
45066;DHT22;30830;53.704;10.004;2022-07-26T00:06:22;17.00;99.90
45066;DHT22;30830;53.704;10.004;2022-07-26T00:08:48;16.90;99.90
45066;DHT22;30830;53.704;10.004;2022-07-26T00:11:14;16.90;99.90
45066;DHT22;30830;53.704;10.004;2022-07-26T00:13:39;16.90;99.90
45066;DHT22;30830;53.704;10.004;2022-07-26T00:16:05;16.90;99.90
45066;DHT22;30830;53.704;10.004;2022-07-26T00:18:31;16.90;99.90
45066;DHT22;30830;53.704;10.004;2022-07-26T00:20:57;16.90;99.90
45066;DHT22;30830;53.704;10.004;2022-07-26T00:23:23;16.90;99.90
45066;DHT22;30830;53.704;10.004;2022-07-26T00:25:49;16.90;99.90
45066;DHT22;30830;53.704;10.004;2022-07-26T00:28:14;16.90;99.90
45066;DHT22;30830;53.704;10.004;2022-07-26T00:30:40;16.90;99.90
45066;DHT22;30830;53.704;10.004;2022-07-26T00:33:06;16.80;99.90
45066;DHT22;30830;53.704;10.004;2022-07-26T00:35:31;16.80;99.90
45066;DHT22;30830;53.704;10.004;2022-07-26T00:37:58;16.80;99.90
45066;DHT22;30830;53.704;10.004;2022-07-26T00:40:23;16.80;99.90
45066;DHT22;30830;53.704;10.004;2022-07-26T00:42:49;16.80;99.90
45066;DHT22;30830;53.704;10.004;2022-07-26T00:45:16;16.90;99.90
45066;DHT22;30830;53.704;10.004;2022-07-26T00:47:43;16.80;99.90
45066;DHT22;30830;53.704;10.004;2022-07-26T00:50:11;16.80;99.90
45066;DHT22;30830;53.704;10.004;2022-07-26T00:52:37;16.90;99.90
45066;DHT22;30830;53.704;10.004;2022-07-26T00:55:04;16.80;99.90
45066;DHT22;30830;53.704;10.004;2022-07-26T00:57:31;16.80;99.90
45066;DHT22;30830;53.704;10.004;2022-07-26T00:59:56;16.90;99.90
45066;DHT22;30830;53.704;10.004;2022-07-26T01:02:25;16.80;99.90
45066;DHT22;30830;53.704;10.004;2022-07-26T01:04:51;16.80;99.90
45066;DHT22;30830;53.704;10.004;2022-07-26T01:07:16;16.80;99.90
45066;DHT22;30830;53.704;10.004;2022-07-26T01:09:43;16.80;99.90
45066;DHT22;30830;53.704;10.004;2022-07-26T01:12:09;16.90;99.90
45066;DHT22;30830;53.704;10.004;2022-07-26T01:14:35;16.80;99.90
45066;DHT22;30830;53.704;10.004;2022-07-26T01:17:01;16.80;99.90
45066;DHT22;30830;53.704;10.004;2022-07-26T01:19:26;16.80;99.90
45066;DHT22;30830;53.704;10.004;2022-07-26T01:21:52;16.80;99.90
45066;DHT22;30830;53.704;10.004;2022-07-26T01:24:18;16.80;99.90
45066;DHT22;30830;53.704;10.004;2022-07-26T01:26:44;16.80;99.90
45066;DHT22;30830;53.704;10.004;2022-07-26T01:29:10;16.80;99.90
45066;DHT22;30830;53.704;10.004;2022-07-26T01:31:36;16.70;99.90
45066;DHT22;30830;53.704;10.004;2022-07-26T01:34:02;16.70;99.90
45066;DHT22;30830;53.704;10.004;2022-07-26T01:36:27;16.70;99.90
45066;DHT22;30830;53.704;10.004;2022-07-26T01:38:53;16.60;99.90
45066;DHT22;30830;53.704;10.004;2022-07-26T01:41:19;16.60;99.90
45066;DHT22;30830;53.704;10.004;2022-07-26T01:43:44;16.60;99.90
45066;DHT22;30830;53.704;10.004;2022-07-26T01:46:10;16.50;99.90
45066;DHT22;30830;53.704;10.004;2022-07-26T01:48:38;16.50;99.90
45066;DHT22;30830;53.704;10.004;2022-07-26T01:51:04;16.50;99.90
45066;DHT22;30830;53.704;10.004;2022-07-26T01:53:30;16.50;99.90
45066;DHT22;30830;53.704;10.004;2022-07-26T01:55:55;16.50;99.90
45066;DHT22;30830;53.704;10.004;2022-07-26T01:58:21;16.40;99.90
45066;DHT22;30830;53.704;10.004;2022-07-26T02:00:47;16.40;99.90
45066;DHT22;30830;53.704;10.004;2022-07-26T02:03:13;16.40;99.90
45066;DHT22;30830;53.704;10.004;2022-07-26T02:05:38;16.40;99.90
45066;DHT22;30830;53.704;10.004;2022-07-26T02:08:04;16.30;99.90
45066;DHT22;30830;53.704;10.004;2022-07-26T02:10:30;16.30;99.90
45066;DHT22;30830;53.704;10.004;2022-07-26T02:13:14;16.30;99.90
45066;DHT22;30830;53.704;10.004;2022-07-26T02:15:40;16.30;99.90
45066;DHT22;30830;53.704;10.004;2022-07-26T02:18:06;16.30;99.90
45066;DHT22;30830;53.704;10.004;2022-07-26T02:20:32;16.20;99.90
45066;DHT22;30830;53.704;10.004;2022-07-26T02:23:01;16.20;99.90
45066;DHT22;30830;53.704;10.004;2022-07-26T02:25:27;16.20;99.90
45066;DHT22;30830;53.704;10.004;2022-07-26T02:27:53;16.20;99.90
45066;DHT22;30830;53.704;10.004;2022-07-26T02:30:19;16.20;99.90
45066;DHT22;30830;53.704;10.004;2022-07-26T02:32:44;16.20;99.90
45066;DHT22;30830;53.704;10.004;2022-07-26T02:35:10;16.20;99.90
45066;DHT22;30830;53.704;10.004;2022-07-26T02:37:36;16.20;99.90
45066;DHT22;30830;53.704;10.004;2022-07-26T02:40:03;16.20;99.90
45066;DHT22;30830;53.704;10.004;2022-07-26T02:42:28;16.20;99.90
45066;DHT22;30830;53.704;10.004;2022-07-26T02:44:54;16.20;99.90
45066;DHT22;30830;53.704;10.004;2022-07-26T02:47:19;16.20;99.90
45066;DHT22;30830;53.704;10.004;2022-07-26T02:49:45;16.20;99.90
45066;DHT22;30830;53.704;10.004;2022-07-26T02:52:11;16.30;99.90
45066;DHT22;30830;53.704;10.004;2022-07-26T02:54:36;16.20;99.90
45066;DHT22;30830;53.704;10.004;2022-07-26T02:57:02;16.30;99.90
45066;DHT22;30830;53.704;10.004;2022-07-26T02:59:28;16.20;99.90
45066;DHT22;30830;53.704;10.004;2022-07-26T03:01:53;16.20;99.90
45066;DHT22;30830;53.704;10.004;2022-07-26T03:04:19;16.20;99.90
45066;DHT22;30830;53.704;10.004;2022-07-26T03:06:45;16.30;99.90
45066;DHT22;30830;53.704;10.004;2022-07-26T03:09:10;16.30;99.90
45066;DHT22;30830;53.704;10.004;2022-07-26T03:11:36;16.30;99.90
45066;DHT22;30830;53.704;10.004;2022-07-26T03:14:01;16.30;99.90
45066;DHT22;30830;53.704;10.004;2022-07-26T03:16:27;16.30;99.90
45066;DHT22;30830;53.704;10.004;2022-07-26T03:18:53;16.30;99.90
45066;DHT22;30830;53.704;10.004;2022-07-26T03:21:18;16.30;99.90
45066;DHT22;30830;53.704;10.004;2022-07-26T03:23:44;16.30;99.90
45066;DHT22;30830;53.704;10.004;2022-07-26T03:26:09;16.30;99.90
45066;DHT22;30830;53.704;10.004;2022-07-26T03:28:35;16.30;99.90
45066;DHT22;30830;53.704;10.004;2022-07-26T03:31:01;16.30;99.90
45066;DHT22;30830;53.704;10.004;2022-07-26T03:33:27;16.30;99.90
45066;DHT22;30830;53.704;10.004;2022-07-26T03:35:53;16.30;99.90
45066;DHT22;30830;53.704;10.004;2022-07-26T03:38:19;16.40;99.90
45066;DHT22;30830;53.704;10.004;2022-07-26T03:40:44;16.30;99.90
45066;DHT22;30830;53.704;10.004;2022-07-26T03:43:10;16.30;99.90
45066;DHT22;30830;53.704;10.004;2022-07-26T03:45:35;16.40;99.90
45066;DHT22;30830;53.704;10.004;2022-07-26T03:48:01;16.40;99.90
45066;DHT22;30830;53.704;10.004;2022-07-26T03:50:26;16.30;99.90
45066;DHT22;30830;53.704;10.004;2022-07-26T03:52:52;16.40;99.90
45066;DHT22;30830;53.704;10.004;2022-07-26T03:55:18;16.40;99.90
45066;DHT22;30830;53.704;10.004;2022-07-26T03:58:02;16.40;99.90
45066;DHT22;30830;53.704;10.004;2022-07-26T04:00:27;16.40;99.90
45066;DHT22;30830;53.704;10.004;2022-07-26T04:02:53;16.40;99.90
45066;DHT22;30830;53.704;10.004;2022-07-26T04:05:18;16.50;99.90
45066;DHT22;30830;53.704;10.004;2022-07-26T04:07:45;16.50;99.90
45066;DHT22;30830;53.704;10.004;2022-07-26T04:10:11;16.50;99.90
45066;DHT22;30830;53.704;10.004;2022-07-26T04:12:37;16.50;99.90
45066;DHT22;30830;53.704;10.004;2022-07-26T04:15:04;16.50;99.90
45066;DHT22;30830;53.704;10.004;2022-07-26T04:17:38;16.50;99.90
45066;DHT22;30830;53.704;10.004;2022-07-26T04:20:05;16.50;99.90
45066;DHT22;30830;53.704;10.004;2022-07-26T04:22:36;16.50;99.90
45066;DHT22;30830;53.704;10.004;2022-07-26T04:25:02;16.50;99.90
45066;DHT22;30830;53.704;10.004;2022-07-26T04:27:29;16.50;99.90
45066;DHT22;30830;53.704;10.004;2022-07-26T04:29:55;16.50;99.90
45066;DHT22;30830;53.704;10.004;2022-07-26T04:32:21;16.50;99.90
45066;DHT22;30830;53.704;10.004;2022-07-26T04:34:46;16.40;99.90
45066;DHT22;30830;53.704;10.004;2022-07-26T04:37:12;16.40;99.90
45066;DHT22;30830;53.704;10.004;2022-07-26T04:39:37;16.50;99.90
45066;DHT22;30830;53.704;10.004;2022-07-26T04:42:03;16.40;99.90
45066;DHT22;30830;53.704;10.004;2022-07-26T04:44:29;16.40;99.90
45066;DHT22;30830;53.704;10.004;2022-07-26T04:46:54;16.40;99.90
45066;DHT22;30830;53.704;10.004;2022-07-26T04:49:20;16.40;99.90
45066;DHT22;30830;53.704;10.004;2022-07-26T04:51:46;16.40;99.90
45066;DHT22;30830;53.704;10.004;2022-07-26T04:54:11;16.40;99.90
45066;DHT22;30830;53.704;10.004;2022-07-26T04:56:39;16.30;99.90
45066;DHT22;30830;53.704;10.004;2022-07-26T04:59:05;16.30;99.90
45066;DHT22;30830;53.704;10.004;2022-07-26T05:01:31;16.40;99.90
45066;DHT22;30830;53.704;10.004;2022-07-26T05:03:56;16.30;99.90
45066;DHT22;30830;53.704;10.004;2022-07-26T05:06:22;16.40;99.90
45066;DHT22;30830;53.704;10.004;2022-07-26T05:08:47;16.40;99.90
45066;DHT22;30830;53.704;10.004;2022-07-26T05:11:13;16.40;99.90
45066;DHT22;30830;53.704;10.004;2022-07-26T05:13:38;16.40;99.90
45066;DHT22;30830;53.704;10.004;2022-07-26T05:16:07;16.40;99.90
45066;DHT22;30830;53.704;10.004;2022-07-26T05:18:32;16.40;99.90
45066;DHT22;30830;53.704;10.004;2022-07-26T05:20:58;16.40;99.90
45066;DHT22;30830;53.704;10.004;2022-07-26T05:23:24;16.40;99.90
45066;DHT22;30830;53.704;10.004;2022-07-26T05:25:49;16.50;99.90
45066;DHT22;30830;53.704;10.004;2022-07-26T05:28:15;16.50;99.90
45066;DHT22;30830;53.704;10.004;2022-07-26T05:30:40;16.50;99.90
45066;DHT22;30830;53.704;10.004;2022-07-26T05:33:06;16.50;99.90
45066;DHT22;30830;53.704;10.004;2022-07-26T05:35:31;16.50;99.90
45066;DHT22;30830;53.704;10.004;2022-07-26T05:37:57;16.60;99.90
45066;DHT22;30830;53.704;10.004;2022-07-26T05:40:22;16.50;99.90
45066;DHT22;30830;53.704;10.004;2022-07-26T05:42:48;16.60;99.90
45066;DHT22;30830;53.704;10.004;2022-07-26T05:45:14;16.60;99.90
45066;DHT22;30830;53.704;10.004;2022-07-26T05:47:39;16.80;99.90
45066;DHT22;30830;53.704;10.004;2022-07-26T05:50:06;16.90;99.90
45066;DHT22;30830;53.704;10.004;2022-07-26T05:52:32;17.00;99.90
45066;DHT22;30830;53.704;10.004;2022-07-26T05:54:57;17.10;99.90
45066;DHT22;30830;53.704;10.004;2022-07-26T05:57:23;17.20;99.90
45066;DHT22;30830;53.704;10.004;2022-07-26T05:59:49;17.20;99.90
45066;DHT22;30830;53.704;10.004;2022-07-26T06:02:14;17.20;99.90
45066;DHT22;30830;53.704;10.004;2022-07-26T06:04:40;17.20;99.90
45066;DHT22;30830;53.704;10.004;2022-07-26T06:07:06;17.20;99.90
45066;DHT22;30830;53.704;10.004;2022-07-26T06:09:32;17.20;99.90
45066;DHT22;30830;53.704;10.004;2022-07-26T06:11:57;17.20;99.90
45066;DHT22;30830;53.704;10.004;2022-07-26T06:14:23;17.20;99.90
45066;DHT22;30830;53.704;10.004;2022-07-26T06:16:49;17.20;99.90
45066;DHT22;30830;53.704;10.004;2022-07-26T06:19:15;17.30;99.90
45066;DHT22;30830;53.704;10.004;2022-07-26T06:21:41;17.30;99.90
45066;DHT22;30830;53.704;10.004;2022-07-26T06:24:07;17.30;99.90
45066;DHT22;30830;53.704;10.004;2022-07-26T06:26:33;17.40;99.90
45066;DHT22;30830;53.704;10.004;2022-07-26T06:28:59;17.40;99.90
45066;DHT22;30830;53.704;10.004;2022-07-26T06:31:25;17.40;99.90
45066;DHT22;30830;53.704;10.004;2022-07-26T06:33:50;17.40;99.90
45066;DHT22;30830;53.704;10.004;2022-07-26T06:36:16;17.40;99.90
45066;DHT22;30830;53.704;10.004;2022-07-26T06:38:41;17.40;99.90
45066;DHT22;30830;53.704;10.004;2022-07-26T06:41:07;17.40;99.90
45066;DHT22;30830;53.704;10.004;2022-07-26T06:43:33;17.40;99.90
45066;DHT22;30830;53.704;10.004;2022-07-26T06:45:58;17.40;99.90
45066;DHT22;30830;53.704;10.004;2022-07-26T06:48:24;17.40;99.90
45066;DHT22;30830;53.704;10.004;2022-07-26T06:50:50;17.30;99.90
45066;DHT22;30830;53.704;10.004;2022-07-26T06:53:15;17.10;99.90
45066;DHT22;30830;53.704;10.004;2022-07-26T06:55:41;17.00;99.90
45066;DHT22;30830;53.704;10.004;2022-07-26T06:58:06;16.80;99.90
45066;DHT22;30830;53.704;10.004;2022-07-26T07:00:32;16.60;99.90
45066;DHT22;30830;53.704;10.004;2022-07-26T07:02:58;16.60;99.90
45066;DHT22;30830;53.704;10.004;2022-07-26T07:05:23;16.60;99.90
45066;DHT22;30830;53.704;10.004;2022-07-26T07:07:49;16.60;99.90
45066;DHT22;30830;53.704;10.004;2022-07-26T07:10:14;16.70;99.90
45066;DHT22;30830;53.704;10.004;2022-07-26T07:12:40;16.90;99.90
45066;DHT22;30830;53.704;10.004;2022-07-26T07:15:08;17.00;99.90
45066;DHT22;30830;53.704;10.004;2022-07-26T07:17:34;17.10;99.90
45066;DHT22;30830;53.704;10.004;2022-07-26T07:19:59;17.30;99.90
45066;DHT22;30830;53.704;10.004;2022-07-26T07:22:25;17.60;99.90
45066;DHT22;30830;53.704;10.004;2022-07-26T07:24:50;17.70;99.90
45066;DHT22;30830;53.704;10.004;2022-07-26T07:27:16;17.80;99.90
45066;DHT22;30830;53.704;10.004;2022-07-26T07:29:42;17.80;99.90
45066;DHT22;30830;53.704;10.004;2022-07-26T07:32:07;17.80;99.90
45066;DHT22;30830;53.704;10.004;2022-07-26T07:34:33;17.70;99.90
45066;DHT22;30830;53.704;10.004;2022-07-26T07:36:59;17.60;99.90
45066;DHT22;30830;53.704;10.004;2022-07-26T07:39:25;17.40;99.90
45066;DHT22;30830;53.704;10.004;2022-07-26T07:41:50;17.20;99.90
45066;DHT22;30830;53.704;10.004;2022-07-26T07:44:16;16.90;99.90
45066;DHT22;30830;53.704;10.004;2022-07-26T07:46:42;16.70;99.90
45066;DHT22;30830;53.704;10.004;2022-07-26T07:49:07;16.70;99.90
45066;DHT22;30830;53.704;10.004;2022-07-26T07:51:34;16.70;99.90
45066;DHT22;30830;53.704;10.004;2022-07-26T07:54:00;16.90;99.90
45066;DHT22;30830;53.704;10.004;2022-07-26T07:56:26;17.20;99.90
45066;DHT22;30830;53.704;10.004;2022-07-26T07:58:51;17.30;99.90
45066;DHT22;30830;53.704;10.004;2022-07-26T08:01:17;17.70;99.90
45066;DHT22;30830;53.704;10.004;2022-07-26T08:03:43;17.90;99.90
45066;DHT22;30830;53.704;10.004;2022-07-26T08:06:09;18.10;99.90
45066;DHT22;30830;53.704;10.004;2022-07-26T08:08:36;18.40;99.90
45066;DHT22;30830;53.704;10.004;2022-07-26T08:11:02;18.60;99.90
45066;DHT22;30830;53.704;10.004;2022-07-26T08:13:28;18.70;99.90
45066;DHT22;30830;53.704;10.004;2022-07-26T08:15:54;18.70;99.90
45066;DHT22;30830;53.704;10.004;2022-07-26T08:18:21;18.70;99.90
45066;DHT22;30830;53.704;10.004;2022-07-26T08:20:47;18.60;99.90
45066;DHT22;30830;53.704;10.004;2022-07-26T08:23:13;18.30;99.90
45066;DHT22;30830;53.704;10.004;2022-07-26T08:25:39;18.10;99.90
45066;DHT22;30830;53.704;10.004;2022-07-26T08:28:05;17.90;99.90
45066;DHT22;30830;53.704;10.004;2022-07-26T08:30:31;17.60;99.90
45066;DHT22;30830;53.704;10.004;2022-07-26T08:32:57;17.50;99.90
45066;DHT22;30830;53.704;10.004;2022-07-26T08:35:25;17.60;99.90
45066;DHT22;30830;53.704;10.004;2022-07-26T08:37:54;17.60;99.90
45066;DHT22;30830;53.704;10.004;2022-07-26T08:40:19;17.80;99.90
45066;DHT22;30830;53.704;10.004;2022-07-26T08:42:53;18.00;99.90
45066;DHT22;30830;53.704;10.004;2022-07-26T08:45:24;18.20;99.90
45066;DHT22;30830;53.704;10.004;2022-07-26T08:47:50;18.40;99.90
45066;DHT22;30830;53.704;10.004;2022-07-26T08:50:17;18.70;99.90
45066;DHT22;30830;53.704;10.004;2022-07-26T08:52:43;19.00;99.90
45066;DHT22;30830;53.704;10.004;2022-07-26T08:55:10;19.10;99.90
45066;DHT22;30830;53.704;10.004;2022-07-26T08:57:35;19.00;99.90
45066;DHT22;30830;53.704;10.004;2022-07-26T09:00:28;18.90;99.90
45066;DHT22;30830;53.704;10.004;2022-07-26T09:02:54;18.90;99.90
45066;DHT22;30830;53.704;10.004;2022-07-26T09:05:26;18.80;99.90
45066;DHT22;30830;53.704;10.004;2022-07-26T09:07:52;18.60;99.90
45066;DHT22;30830;53.704;10.004;2022-07-26T09:10:17;18.50;99.90
45066;DHT22;30830;53.704;10.004;2022-07-26T09:12:43;18.50;99.90
45066;DHT22;30830;53.704;10.004;2022-07-26T09:15:21;18.50;99.90
45066;DHT22;30830;53.704;10.004;2022-07-26T09:17:49;18.50;99.90
45066;DHT22;30830;53.704;10.004;2022-07-26T09:20:17;18.50;99.90
45066;DHT22;30830;53.704;10.004;2022-07-26T09:23:03;18.60;99.90
45066;DHT22;30830;53.704;10.004;2022-07-26T09:25:33;18.60;99.90
45066;DHT22;30830;53.704;10.004;2022-07-26T09:28:00;18.50;99.90
45066;DHT22;30830;53.704;10.004;2022-07-26T09:30:28;18.40;99.90
45066;DHT22;30830;53.704;10.004;2022-07-26T09:33:02;18.20;99.90
45066;DHT22;30830;53.704;10.004;2022-07-26T09:35:31;18.20;99.90
45066;DHT22;30830;53.704;10.004;2022-07-26T09:37:56;18.20;99.90
45066;DHT22;30830;53.704;10.004;2022-07-26T09:40:24;18.20;99.90
45066;DHT22;30830;53.704;10.004;2022-07-26T09:42:57;18.10;99.90
45066;DHT22;30830;53.704;10.004;2022-07-26T09:45:24;18.20;99.90
45066;DHT22;30830;53.704;10.004;2022-07-26T09:47:50;18.30;99.90
45066;DHT22;30830;53.704;10.004;2022-07-26T09:50:23;18.50;99.90
45066;DHT22;30830;53.704;10.004;2022-07-26T09:55:36;18.80;99.90
45066;DHT22;30830;53.704;10.004;2022-07-26T09:58:17;18.90;99.90
45066;DHT22;30830;53.704;10.004;2022-07-26T10:00:43;19.00;99.90
45066;DHT22;30830;53.704;10.004;2022-07-26T10:03:09;19.20;99.90
45066;DHT22;30830;53.704;10.004;2022-07-26T10:05:35;19.10;99.90
45066;DHT22;30830;53.704;10.004;2022-07-26T10:08:01;19.10;99.90
45066;DHT22;30830;53.704;10.004;2022-07-26T10:10:38;19.00;99.90
45066;DHT22;30830;53.704;10.004;2022-07-26T10:13:04;18.90;99.90
45066;DHT22;30830;53.704;10.004;2022-07-26T10:15:48;18.90;99.90
45066;DHT22;30830;53.704;10.004;2022-07-26T10:21:27;19.20;99.90
45066;DHT22;30830;53.704;10.004;2022-07-26T10:23:57;19.30;99.90
45066;DHT22;30830;53.704;10.004;2022-07-26T10:31:43;19.30;99.90
45066;DHT22;30830;53.704;10.004;2022-07-26T10:34:09;19.30;99.90
45066;DHT22;30830;53.704;10.004;2022-07-26T10:36:37;19.40;99.90
45066;DHT22;30830;53.704;10.004;2022-07-26T10:39:12;19.30;99.90
45066;DHT22;30830;53.704;10.004;2022-07-26T10:41:39;19.20;99.90
45066;DHT22;30830;53.704;10.004;2022-07-26T10:44:15;19.10;99.90
45066;DHT22;30830;53.704;10.004;2022-07-26T10:46:58;19.20;99.90
45066;DHT22;30830;53.704;10.004;2022-07-26T10:49:57;19.30;99.90
45066;DHT22;30830;53.704;10.004;2022-07-26T10:52:24;19.40;99.90
45066;DHT22;30830;53.704;10.004;2022-07-26T10:57:33;19.50;99.90
45066;DHT22;30830;53.704;10.004;2022-07-26T11:00:00;19.60;99.90
45066;DHT22;30830;53.704;10.004;2022-07-26T11:02:28;19.60;99.90
45066;DHT22;30830;53.704;10.004;2022-07-26T11:05:02;19.50;99.90
45066;DHT22;30830;53.704;10.004;2022-07-26T11:07:29;19.50;99.90
45066;DHT22;30830;53.704;10.004;2022-07-26T11:09:56;19.40;99.90
45066;DHT22;30830;53.704;10.004;2022-07-26T11:12:22;19.30;99.90
45066;DHT22;30830;53.704;10.004;2022-07-26T11:14:48;19.40;99.90
45066;DHT22;30830;53.704;10.004;2022-07-26T11:17:27;19.50;99.90
45066;DHT22;30830;53.704;10.004;2022-07-26T11:19:54;19.40;99.90
45066;DHT22;30830;53.704;10.004;2022-07-26T11:22:20;19.50;99.90
45066;DHT22;30830;53.704;10.004;2022-07-26T11:24:46;19.60;99.90
45066;DHT22;30830;53.704;10.004;2022-07-26T11:27:12;19.70;99.90
45066;DHT22;30830;53.704;10.004;2022-07-26T11:29:38;19.80;99.90
45066;DHT22;30830;53.704;10.004;2022-07-26T11:32:05;19.70;99.90
45066;DHT22;30830;53.704;10.004;2022-07-26T11:34:32;19.60;99.90
45066;DHT22;30830;53.704;10.004;2022-07-26T11:37:00;19.50;99.90
45066;DHT22;30830;53.704;10.004;2022-07-26T11:39:31;19.30;99.90
45066;DHT22;30830;53.704;10.004;2022-07-26T11:42:03;19.40;99.90
45066;DHT22;30830;53.704;10.004;2022-07-26T11:44:30;19.40;99.90
45066;DHT22;30830;53.704;10.004;2022-07-26T11:46:56;19.30;99.90
45066;DHT22;30830;53.704;10.004;2022-07-26T11:49:24;19.30;99.90
45066;DHT22;30830;53.704;10.004;2022-07-26T11:51:54;19.30;99.90
45066;DHT22;30830;53.704;10.004;2022-07-26T11:54:28;19.30;99.90
45066;DHT22;30830;53.704;10.004;2022-07-26T11:56:56;19.50;99.90
45066;DHT22;30830;53.704;10.004;2022-07-26T11:59:27;19.50;99.90
45066;DHT22;30830;53.704;10.004;2022-07-26T12:01:54;19.50;99.90
45066;DHT22;30830;53.704;10.004;2022-07-26T12:04:25;19.40;99.00
45066;DHT22;30830;53.704;10.004;2022-07-26T12:06:52;19.40;98.80
45066;DHT22;30830;53.704;10.004;2022-07-26T12:11:53;19.50;97.40
45066;DHT22;30830;53.704;10.004;2022-07-26T12:14:29;19.40;97.60
45066;DHT22;30830;53.704;10.004;2022-07-26T12:16:56;19.30;97.20
45066;DHT22;30830;53.704;10.004;2022-07-26T12:19:25;19.30;96.90
45066;DHT22;30830;53.704;10.004;2022-07-26T12:22:18;19.30;96.50
45066;DHT22;30830;53.704;10.004;2022-07-26T12:24:57;19.40;97.90
45066;DHT22;30830;53.704;10.004;2022-07-26T12:27:27;19.70;97.10
45066;DHT22;30830;53.704;10.004;2022-07-26T12:30:14;19.90;96.90
45066;DHT22;30830;53.704;10.004;2022-07-26T12:32:43;19.80;97.60
45066;DHT22;30830;53.704;10.004;2022-07-26T12:35:13;19.80;97.40
45066;DHT22;30830;53.704;10.004;2022-07-26T12:40:14;19.70;97.30
45066;DHT22;30830;53.704;10.004;2022-07-26T12:45:11;19.70;96.20
45066;DHT22;30830;53.704;10.004;2022-07-26T12:47:40;19.70;97.00
45066;DHT22;30830;53.704;10.004;2022-07-26T12:50:07;19.70;99.20
45066;DHT22;30830;53.704;10.004;2022-07-26T12:52:34;19.80;97.20
45066;DHT22;30830;53.704;10.004;2022-07-26T12:55:00;19.80;96.40
45066;DHT22;30830;53.704;10.004;2022-07-26T12:57:26;19.70;96.20
45066;DHT22;30830;53.704;10.004;2022-07-26T12:59:53;19.80;95.00
45066;DHT22;30830;53.704;10.004;2022-07-26T13:02:19;19.70;94.20
45066;DHT22;30830;53.704;10.004;2022-07-26T13:04:45;19.60;94.40
45066;DHT22;30830;53.704;10.004;2022-07-26T13:07:12;19.50;95.30
45066;DHT22;30830;53.704;10.004;2022-07-26T13:09:38;19.40;95.70
45066;DHT22;30830;53.704;10.004;2022-07-26T13:12:05;19.40;96.50
45066;DHT22;30830;53.704;10.004;2022-07-26T13:14:35;19.60;96.40
45066;DHT22;30830;53.704;10.004;2022-07-26T13:17:02;19.80;96.00
45066;DHT22;30830;53.704;10.004;2022-07-26T13:19:28;20.10;95.90
45066;DHT22;30830;53.704;10.004;2022-07-26T13:21:55;20.10;94.40
45066;DHT22;30830;53.704;10.004;2022-07-26T13:24:21;19.90;95.50
45066;DHT22;30830;53.704;10.004;2022-07-26T13:26:47;19.80;96.00
45066;DHT22;30830;53.704;10.004;2022-07-26T13:29:13;19.90;95.00
45066;DHT22;30830;53.704;10.004;2022-07-26T13:31:38;20.00;95.10
45066;DHT22;30830;53.704;10.004;2022-07-26T13:34:04;20.20;94.50
45066;DHT22;30830;53.704;10.004;2022-07-26T13:36:30;20.40;94.20
45066;DHT22;30830;53.704;10.004;2022-07-26T13:38:55;20.40;94.90
45066;DHT22;30830;53.704;10.004;2022-07-26T13:41:21;20.30;94.90
45066;DHT22;30830;53.704;10.004;2022-07-26T13:43:47;20.20;95.20
45066;DHT22;30830;53.704;10.004;2022-07-26T13:46:14;20.30;94.30
45066;DHT22;30830;53.704;10.004;2022-07-26T13:48:39;20.20;93.70
45066;DHT22;30830;53.704;10.004;2022-07-26T13:51:05;20.40;93.00
45066;DHT22;30830;53.704;10.004;2022-07-26T13:53:32;20.40;93.80
45066;DHT22;30830;53.704;10.004;2022-07-26T13:55:58;20.40;92.90
45066;DHT22;30830;53.704;10.004;2022-07-26T13:58:23;20.60;93.20
45066;DHT22;30830;53.704;10.004;2022-07-26T14:00:49;20.70;94.00
45066;DHT22;30830;53.704;10.004;2022-07-26T14:03:15;20.80;93.50
45066;DHT22;30830;53.704;10.004;2022-07-26T14:05:40;20.70;92.80
45066;DHT22;30830;53.704;10.004;2022-07-26T14:08:06;20.70;92.50
45066;DHT22;30830;53.704;10.004;2022-07-26T14:10:32;20.70;94.70
45066;DHT22;30830;53.704;10.004;2022-07-26T14:13:01;20.60;93.00
45066;DHT22;30830;53.704;10.004;2022-07-26T14:15:27;20.50;92.80
45066;DHT22;30830;53.704;10.004;2022-07-26T14:17:52;20.30;94.30
45066;DHT22;30830;53.704;10.004;2022-07-26T14:20:18;20.30;94.00
45066;DHT22;30830;53.704;10.004;2022-07-26T14:22:44;20.10;92.80
45066;DHT22;30830;53.704;10.004;2022-07-26T14:25:10;20.10;94.10
45066;DHT22;30830;53.704;10.004;2022-07-26T14:27:36;20.10;93.70
45066;DHT22;30830;53.704;10.004;2022-07-26T14:30:02;20.00;94.30
45066;DHT22;30830;53.704;10.004;2022-07-26T14:32:28;19.90;93.60
45066;DHT22;30830;53.704;10.004;2022-07-26T14:34:54;19.90;93.60
45066;DHT22;30830;53.704;10.004;2022-07-26T14:37:19;19.80;94.60
45066;DHT22;30830;53.704;10.004;2022-07-26T14:39:45;19.80;95.60
45066;DHT22;30830;53.704;10.004;2022-07-26T14:42:10;19.80;95.50
45066;DHT22;30830;53.704;10.004;2022-07-26T14:44:36;19.60;94.50
45066;DHT22;30830;53.704;10.004;2022-07-26T14:47:01;19.50;95.30
45066;DHT22;30830;53.704;10.004;2022-07-26T14:49:27;19.40;95.20
45066;DHT22;30830;53.704;10.004;2022-07-26T14:51:53;19.40;96.80
45066;DHT22;30830;53.704;10.004;2022-07-26T14:54:19;19.30;95.80
45066;DHT22;30830;53.704;10.004;2022-07-26T14:56:45;19.20;95.50
45066;DHT22;30830;53.704;10.004;2022-07-26T14:59:12;19.20;95.10
45066;DHT22;30830;53.704;10.004;2022-07-26T15:01:37;19.20;95.90
45066;DHT22;30830;53.704;10.004;2022-07-26T15:04:03;19.20;95.20
45066;DHT22;30830;53.704;10.004;2022-07-26T15:06:29;19.10;95.80
45066;DHT22;30830;53.704;10.004;2022-07-26T15:08:55;19.10;95.80
45066;DHT22;30830;53.704;10.004;2022-07-26T15:11:20;19.10;95.90
45066;DHT22;30830;53.704;10.004;2022-07-26T15:13:46;19.00;96.90
45066;DHT22;30830;53.704;10.004;2022-07-26T15:16:11;19.00;96.90
45066;DHT22;30830;53.704;10.004;2022-07-26T15:18:37;18.90;97.00
45066;DHT22;30830;53.704;10.004;2022-07-26T15:21:03;18.90;97.50
45066;DHT22;30830;53.704;10.004;2022-07-26T15:23:28;19.00;97.80
45066;DHT22;30830;53.704;10.004;2022-07-26T15:25:54;18.90;97.30
45066;DHT22;30830;53.704;10.004;2022-07-26T15:28:19;18.90;97.40
45066;DHT22;30830;53.704;10.004;2022-07-26T15:30:45;18.80;97.90
45066;DHT22;30830;53.704;10.004;2022-07-26T15:33:11;18.80;98.00
45066;DHT22;30830;53.704;10.004;2022-07-26T15:35:39;18.70;98.30